createdAt,value
2023-04-02T00:00:29.660Z,2.20
2023-04-02T00:03:01.463Z,1.80
2023-04-02T00:05:34.617Z,1.90
2023-04-02T00:08:18.250Z,1.90
2023-04-02T00:10:48.286Z,1.90
2023-04-02T00:13:15.385Z,2.00
2023-04-02T00:15:47.556Z,1.80
2023-04-02T00:18:18.380Z,2.00
2023-04-02T00:20:51.560Z,2.10
2023-04-02T00:23:19.818Z,2.00
2023-04-02T00:25:47.332Z,1.90
2023-04-02T00:28:23.342Z,1.80
2023-04-02T00:31:00.308Z,1.80
2023-04-02T00:33:31.577Z,1.90
2023-04-02T00:35:58.417Z,2.00
2023-04-02T00:38:28.174Z,1.90
2023-04-02T00:40:58.393Z,1.80
2023-04-02T00:43:30.867Z,1.90
2023-04-02T00:46:03.048Z,1.90
2023-04-02T00:48:32.919Z,1.80
2023-04-02T00:51:34.759Z,2.00
2023-04-02T00:54:05.173Z,1.80
2023-04-02T00:56:39.138Z,1.80
2023-04-02T00:59:36.842Z,1.90
2023-04-02T01:02:19.986Z,1.90
2023-04-02T01:04:58.660Z,1.80
2023-04-02T01:07:48.597Z,1.90
2023-04-02T01:10:24.218Z,2.00
2023-04-02T01:13:10.153Z,1.70
2023-04-02T01:16:04.433Z,1.90
2023-04-02T01:18:50.368Z,1.90
2023-04-02T01:21:28.235Z,1.80
2023-04-02T01:24:05.597Z,1.70
2023-04-02T01:26:48.026Z,1.80
2023-04-02T01:29:22.447Z,1.90
2023-04-02T01:31:51.688Z,1.90
2023-04-02T01:34:22.961Z,1.90
2023-04-02T01:37:06.055Z,1.80
2023-04-02T01:40:09.868Z,1.70
2023-04-02T01:42:49.050Z,1.80
2023-04-02T01:45:17.408Z,1.90
2023-04-02T01:47:44.899Z,1.90
2023-04-02T01:50:32.099Z,1.90
2023-04-02T01:53:05.219Z,1.60
2023-04-02T01:55:35.361Z,1.80
2023-04-02T01:58:03.927Z,1.80
2023-04-02T02:00:32.498Z,1.90
2023-04-02T02:03:01.337Z,1.70
2023-04-02T02:05:29.227Z,1.80
2023-04-02T02:07:57.942Z,1.80
2023-04-02T02:10:37.157Z,1.60
2023-04-02T02:13:04.189Z,1.50
2023-04-02T02:15:33.868Z,1.70
2023-04-02T02:18:05.923Z,1.60
2023-04-02T02:20:33.588Z,1.30
2023-04-02T02:23:01.446Z,1.40
2023-04-02T02:25:30.940Z,1.30
2023-04-02T02:28:16.307Z,1.40
2023-04-02T02:31:02.018Z,1.10
2023-04-02T02:33:34.162Z,1.30
2023-04-02T02:36:07.285Z,1.00
2023-04-02T02:38:33.989Z,1.10
2023-04-02T02:41:08.703Z,1.10
2023-04-02T02:43:38.613Z,0.90
2023-04-02T02:46:06.183Z,0.90
2023-04-02T02:48:37.487Z,1.00
2023-04-02T02:51:09.260Z,0.80
2023-04-02T02:53:46.538Z,0.80
2023-04-02T02:56:13.643Z,0.70
2023-04-02T02:58:40.909Z,0.70
2023-04-02T03:01:07.929Z,0.70
2023-04-02T03:03:35.488Z,0.60
2023-04-02T03:06:06.596Z,0.60
2023-04-02T03:08:37.158Z,0.50
2023-04-02T03:11:19.689Z,0.60
2023-04-02T03:13:50.585Z,0.60
2023-04-02T03:16:28.464Z,0.50
2023-04-02T03:19:01.111Z,0.40
2023-04-02T03:21:44.093Z,0.60
2023-04-02T03:24:11.015Z,0.50
2023-04-02T03:26:39.942Z,0.30
2023-04-02T03:29:13.033Z,0.30
2023-04-02T03:31:44.328Z,0.30
2023-04-02T03:34:18.803Z,0.20
2023-04-02T03:36:57.953Z,0.30
2023-04-02T03:39:39.156Z,0.10
2023-04-02T03:42:14.364Z,0.20
2023-04-02T03:44:50.430Z,0.20
2023-04-02T03:47:29.888Z,0.10
2023-04-02T03:50:03.880Z,0.30
2023-04-02T03:52:31.227Z,0.10
2023-04-02T03:55:01.233Z,0.00
2023-04-02T03:57:44.040Z,0.00
2023-04-02T04:00:16.799Z,0.00
2023-04-02T04:03:02.700Z,0.00
2023-04-02T04:05:34.778Z,0.10
2023-04-02T04:08:15.757Z,0.10
2023-04-02T04:10:43.759Z,0.00
2023-04-02T04:13:17.754Z,0.00
2023-04-02T04:16:13.520Z,0.20
2023-04-02T04:18:47.712Z,0.40
2023-04-02T04:21:37.467Z,0.90
2023-04-02T04:24:05.911Z,1.80
2023-04-02T04:26:44.447Z,2.10
2023-04-02T04:29:15.634Z,2.70
2023-04-02T04:31:47.352Z,3.00
2023-04-02T04:34:16.518Z,3.00
2023-04-02T04:36:54.251Z,3.40
2023-04-02T04:39:29.616Z,3.50
2023-04-02T04:41:58.704Z,3.80
2023-04-02T04:44:45.854Z,4.20
2023-04-02T04:47:18.294Z,4.20
2023-04-02T04:49:47.721Z,4.20
2023-04-02T04:52:18.009Z,4.40
2023-04-02T04:54:46.002Z,4.80
2023-04-02T04:57:36.029Z,5.30
2023-04-02T05:00:06.255Z,5.50
2023-04-02T05:02:36.228Z,5.60
2023-04-02T05:05:04.110Z,5.90
2023-04-02T05:07:32.689Z,5.50
2023-04-02T05:10:16.272Z,5.50
2023-04-02T05:12:46.043Z,6.00
2023-04-02T05:15:31.372Z,6.40
2023-04-02T05:18:07.251Z,6.40
2023-04-02T05:20:54.322Z,6.50
2023-04-02T05:23:34.472Z,6.40
2023-04-02T05:26:11.411Z,6.70
2023-04-02T05:28:38.090Z,6.70
2023-04-02T05:31:32.930Z,7.40
2023-04-02T05:33:59.730Z,7.30
2023-04-02T05:36:27.994Z,7.70
2023-04-02T05:38:56.540Z,7.70
2023-04-02T05:41:43.796Z,8.20
2023-04-02T05:44:10.754Z,8.60
2023-04-02T05:46:41.820Z,8.70
2023-04-02T05:49:14.103Z,8.60
2023-04-02T05:51:45.774Z,8.50
2023-04-02T05:54:17.353Z,8.20
2023-04-02T05:56:47.294Z,8.00
2023-04-02T05:59:19.572Z,8.00
2023-04-02T06:02:07.336Z,8.10
2023-04-02T06:04:37.133Z,8.60
2023-04-02T06:07:03.859Z,9.20
2023-04-02T06:09:34.171Z,9.20
2023-04-02T06:12:18.131Z,8.90
2023-04-02T06:14:46.795Z,9.30
2023-04-02T06:17:15.189Z,9.00
2023-04-02T06:19:42.046Z,9.00
2023-04-02T06:22:17.827Z,9.20
2023-04-02T06:24:45.774Z,9.50
2023-04-02T06:27:14.194Z,9.80
2023-04-02T06:29:44.703Z,9.70
2023-04-02T06:32:12.633Z,9.40
2023-04-02T06:34:40.982Z,8.80
2023-04-02T06:37:31.692Z,8.70
2023-04-02T06:39:59.195Z,9.40
2023-04-02T06:42:37.320Z,10.30
2023-04-02T06:45:04.621Z,10.90
2023-04-02T06:47:35.952Z,11.00
2023-04-02T06:50:18.783Z,10.80
2023-04-02T06:52:47.401Z,10.60
2023-04-02T06:55:20.485Z,10.40
2023-04-02T06:57:48.395Z,10.60
2023-04-02T07:00:28.154Z,10.80
2023-04-02T07:02:58.289Z,12.00
2023-04-02T07:05:25.160Z,12.00
2023-04-02T07:07:51.998Z,12.20
2023-04-02T07:10:20.338Z,12.60
2023-04-02T07:12:47.350Z,12.40
2023-04-02T07:15:19.144Z,12.60
2023-04-02T07:17:48.157Z,13.30
2023-04-02T07:20:34.209Z,13.30
2023-04-02T07:23:00.940Z,13.70
2023-04-02T07:25:27.770Z,13.80
2023-04-02T07:27:55.143Z,13.60
2023-04-02T07:30:22.002Z,13.30
2023-04-02T07:32:48.893Z,13.60
2023-04-02T07:35:15.768Z,13.10
2023-04-02T07:37:42.508Z,13.10
2023-04-02T07:40:15.969Z,13.20
2023-04-02T07:42:42.845Z,11.80
2023-04-02T07:45:09.890Z,12.70
2023-04-02T07:47:36.611Z,13.60
2023-04-02T07:50:03.893Z,14.10
2023-04-02T07:52:31.354Z,13.10
2023-04-02T07:54:58.086Z,12.20
2023-04-02T07:57:24.856Z,11.40
2023-04-02T07:59:51.616Z,11.40
2023-04-02T08:02:23.921Z,12.20
2023-04-02T08:04:51.357Z,12.10
2023-04-02T08:07:19.151Z,13.00
2023-04-02T08:09:45.969Z,14.10
2023-04-02T08:12:13.492Z,14.00
2023-04-02T08:14:40.220Z,13.00
2023-04-02T08:17:07.010Z,12.80
2023-04-02T08:19:41.557Z,11.50
2023-04-02T08:22:18.662Z,12.10
2023-04-02T08:24:45.488Z,13.10
2023-04-02T08:27:15.045Z,12.00
2023-04-02T08:29:41.857Z,11.50
2023-04-02T08:32:11.400Z,12.60
2023-04-02T08:34:38.161Z,12.20
2023-04-02T08:37:04.850Z,11.50
2023-04-02T08:39:35.233Z,10.90
2023-04-02T08:42:17.388Z,10.90
2023-04-02T08:44:54.359Z,11.00
2023-04-02T08:47:25.923Z,10.60
2023-04-02T08:49:52.663Z,10.80
2023-04-02T08:52:22.144Z,10.60
2023-04-02T08:54:49.557Z,10.80
2023-04-02T08:57:19.485Z,12.00
2023-04-02T08:59:48.031Z,12.70
2023-04-02T09:02:17.589Z,13.50
2023-04-02T09:04:44.423Z,14.00
2023-04-02T09:07:16.701Z,14.00
2023-04-02T09:09:45.064Z,14.00
2023-04-02T09:12:18.415Z,13.80
2023-04-02T09:14:45.239Z,13.30
2023-04-02T09:17:22.024Z,13.50
2023-04-02T09:20:01.624Z,13.30
2023-04-02T09:22:31.688Z,14.10
2023-04-02T09:25:00.054Z,14.60
2023-04-02T09:27:28.733Z,14.40
2023-04-02T09:29:57.769Z,13.80
2023-04-02T09:32:35.239Z,13.50
2023-04-02T09:35:14.977Z,13.40
2023-04-02T09:38:09.646Z,13.20
2023-04-02T09:40:46.845Z,14.20
2023-04-02T09:43:18.104Z,15.50
2023-04-02T09:45:54.792Z,15.70
2023-04-02T09:48:26.637Z,14.60
2023-04-02T09:51:04.862Z,13.90
2023-04-02T09:53:34.922Z,13.90
2023-04-02T09:56:12.384Z,13.30
2023-04-02T09:58:40.359Z,14.20
2023-04-02T10:01:24.467Z,14.30
2023-04-02T10:03:52.051Z,13.50
2023-04-02T10:06:18.954Z,13.10
2023-04-02T10:08:45.734Z,13.60
2023-04-02T10:11:14.072Z,13.90
2023-04-02T10:13:41.041Z,15.00
2023-04-02T10:16:10.904Z,15.30
2023-04-02T10:18:49.667Z,16.40
2023-04-02T10:21:18.394Z,16.40
2023-04-02T10:23:45.429Z,16.50
2023-04-02T10:26:12.181Z,15.30
2023-04-02T10:28:42.599Z,15.80
2023-04-02T10:31:17.529Z,16.50
2023-04-02T10:33:47.180Z,16.00
2023-04-02T10:36:20.078Z,16.00
2023-04-02T10:39:02.831Z,16.40
2023-04-02T10:41:32.603Z,15.70
2023-04-02T10:44:03.635Z,14.20
2023-04-02T10:46:39.755Z,13.60
2023-04-02T10:49:30.620Z,13.60
2023-04-02T10:52:23.774Z,13.40
2023-04-02T10:54:51.449Z,15.10
2023-04-02T10:57:36.898Z,15.90
2023-04-02T11:00:18.885Z,15.70
2023-04-02T11:03:00.715Z,16.30
2023-04-02T11:05:46.516Z,16.90
2023-04-02T11:08:31.813Z,17.10
2023-04-02T11:11:04.820Z,18.30
2023-04-02T11:13:36.124Z,19.20
2023-04-02T11:16:03.789Z,19.40
2023-04-02T11:18:36.727Z,20.30
2023-04-02T11:21:05.068Z,20.20
2023-04-02T11:23:33.501Z,18.60
2023-04-02T11:26:28.493Z,16.80
2023-04-02T11:29:04.922Z,17.70
2023-04-02T11:31:31.745Z,18.30
2023-04-02T11:33:58.520Z,18.00
2023-04-02T11:36:44.179Z,18.30
2023-04-02T11:39:17.524Z,19.20
2023-04-02T11:42:01.415Z,18.90
2023-04-02T11:44:28.184Z,19.50
2023-04-02T11:47:14.740Z,19.90
2023-04-02T11:50:01.474Z,20.00
2023-04-02T11:52:28.490Z,20.10
2023-04-02T11:54:59.841Z,20.10
2023-04-02T11:57:36.461Z,20.40
2023-04-02T12:00:14.375Z,20.50
2023-04-02T12:03:06.915Z,20.30
2023-04-02T12:05:39.442Z,20.00
2023-04-02T12:08:22.634Z,20.30
2023-04-02T12:10:54.889Z,20.10
2023-04-02T12:13:40.068Z,19.50
2023-04-02T12:16:08.338Z,19.70
2023-04-02T12:18:35.489Z,20.80
2023-04-02T12:21:02.531Z,20.00
2023-04-02T12:23:31.359Z,20.00
2023-04-02T12:25:59.074Z,20.00
2023-04-02T12:28:28.987Z,19.80
2023-04-02T12:31:25.385Z,20.40
2023-04-02T12:33:52.928Z,20.10
2023-04-02T12:36:20.882Z,20.30
2023-04-02T12:38:47.787Z,21.00
2023-04-02T12:41:21.544Z,21.10
2023-04-02T12:43:56.298Z,20.70
2023-04-02T12:46:25.921Z,19.70
2023-04-02T12:48:54.240Z,19.50
2023-04-02T12:51:21.365Z,19.90
2023-04-02T12:53:50.538Z,19.60
2023-04-02T12:56:21.719Z,20.30
2023-04-02T12:58:54.685Z,20.30
2023-04-02T13:01:27.659Z,20.10
2023-04-02T13:04:01.637Z,19.90
2023-04-02T13:06:30.671Z,20.40
2023-04-02T13:08:57.811Z,19.70
2023-04-02T13:11:33.619Z,19.60
2023-04-02T13:14:01.838Z,19.70
2023-04-02T13:16:34.003Z,19.40
2023-04-02T13:19:22.187Z,19.80
2023-04-02T13:21:49.442Z,19.40
2023-04-02T13:24:16.983Z,19.20
2023-04-02T13:26:43.852Z,18.80
2023-04-02T13:29:18.714Z,18.90
2023-04-02T13:31:45.513Z,17.10
2023-04-02T13:34:12.234Z,17.10
2023-04-02T13:36:39.048Z,17.10
2023-04-02T13:39:06.056Z,15.90
2023-04-02T13:41:55.846Z,12.30
2023-04-02T13:44:22.508Z,9.50
2023-04-02T13:46:49.596Z,7.60
2023-04-02T13:49:16.742Z,6.80
2023-04-02T13:51:45.837Z,6.40
2023-04-02T13:54:16.113Z,6.10
2023-04-02T13:56:42.936Z,5.90
2023-04-02T13:59:09.685Z,5.80
2023-04-02T14:01:37.520Z,5.70
2023-04-02T14:04:05.736Z,5.60
2023-04-02T14:06:32.489Z,5.50
2023-04-02T14:09:10.993Z,5.60
2023-04-02T14:11:40.781Z,5.70
2023-04-02T14:14:26.065Z,5.60
2023-04-02T14:17:01.479Z,5.60
2023-04-02T14:19:31.767Z,5.70
2023-04-02T14:21:58.487Z,5.60
2023-04-02T14:24:40.661Z,5.50
2023-04-02T14:27:19.551Z,5.60
2023-04-02T14:29:54.517Z,5.70
2023-04-02T14:32:26.091Z,5.60
2023-04-02T14:35:11.867Z,5.50
2023-04-02T14:37:57.510Z,5.50
2023-04-02T14:40:31.766Z,5.50
2023-04-02T14:43:01.910Z,5.40
2023-04-02T14:45:28.548Z,5.40
2023-04-02T14:47:59.772Z,5.30
2023-04-02T14:50:29.061Z,5.30
2023-04-02T14:52:58.283Z,4.90
2023-04-02T14:55:33.028Z,5.20
2023-04-02T14:58:01.512Z,5.00
2023-04-02T15:00:41.353Z,5.10
2023-04-02T15:03:15.644Z,4.90
2023-04-02T15:05:45.418Z,5.10
2023-04-02T15:08:20.052Z,5.30
2023-04-02T15:11:02.838Z,5.20
2023-04-02T15:13:39.049Z,4.90
2023-04-02T15:16:11.451Z,5.00
2023-04-02T15:18:41.298Z,4.80
2023-04-02T15:21:20.400Z,4.80
2023-04-02T15:24:06.174Z,4.60
2023-04-02T15:26:51.666Z,4.50
2023-04-02T15:29:36.509Z,4.40
2023-04-02T15:32:12.574Z,4.30
2023-04-02T15:34:41.663Z,4.40
2023-04-02T15:37:32.212Z,4.50
2023-04-02T15:40:08.230Z,4.20
2023-04-02T15:42:39.099Z,4.30
2023-04-02T15:45:11.965Z,4.30
2023-04-02T15:47:38.811Z,4.50
2023-04-02T15:50:15.813Z,4.20
2023-04-02T15:52:45.385Z,4.40
2023-04-02T15:55:30.877Z,4.30
2023-04-02T15:58:16.367Z,4.10
2023-04-02T16:01:02.277Z,4.20
2023-04-02T16:03:41.551Z,4.40
2023-04-02T16:06:10.789Z,4.30
2023-04-02T16:08:57.338Z,4.30
2023-04-02T16:11:25.341Z,4.20
2023-04-02T16:13:53.886Z,4.00
2023-04-02T16:16:23.941Z,4.10
2023-04-02T16:19:17.227Z,4.10
2023-04-02T16:22:04.296Z,4.00
2023-04-02T16:24:31.125Z,3.90
2023-04-02T16:27:07.432Z,3.70
2023-04-02T16:29:54.858Z,3.90
2023-04-02T16:32:26.661Z,3.70
2023-04-02T16:35:41.800Z,3.60
2023-04-02T16:38:13.197Z,3.60
2023-04-02T16:40:43.258Z,3.50
2023-04-02T16:43:09.935Z,3.40
2023-04-02T16:45:48.898Z,3.40
2023-04-02T16:48:28.096Z,3.40
2023-04-02T16:51:17.704Z,3.40
2023-04-02T16:54:01.030Z,3.30
2023-04-02T16:56:28.556Z,3.20
2023-04-02T16:58:58.924Z,3.10
2023-04-02T17:01:35.150Z,3.20
2023-04-02T17:04:11.272Z,3.30
2023-04-02T17:06:56.774Z,3.00
2023-04-02T17:09:39.100Z,3.00
2023-04-02T17:12:07.648Z,3.00
2023-04-02T17:14:36.241Z,3.00
2023-04-02T17:17:03.660Z,2.90
2023-04-02T17:19:31.550Z,2.80
2023-04-02T17:24:44.621Z,2.70
2023-04-02T17:27:36.757Z,2.90
2023-04-02T17:30:17.228Z,2.90
2023-04-02T17:32:44.429Z,2.80
2023-04-02T17:35:17.708Z,2.70
2023-04-02T17:37:49.200Z,2.80
2023-04-02T17:40:25.500Z,2.70
2023-04-02T17:43:11.010Z,2.70
2023-04-02T17:45:56.399Z,2.60
2023-04-02T17:48:47.414Z,2.50
2023-04-02T17:51:33.760Z,2.50
2023-04-02T17:54:37.194Z,2.50
2023-04-02T17:57:42.281Z,2.40
2023-04-02T18:00:31.003Z,2.20
2023-04-02T18:03:25.376Z,2.30
2023-04-02T18:06:25.486Z,2.20
2023-04-02T18:09:10.700Z,2.20
2023-04-02T18:11:46.138Z,2.20
2023-04-02T18:14:28.789Z,2.00
2023-04-02T18:17:04.453Z,1.90
2023-04-02T18:19:49.503Z,2.10
2023-04-02T18:23:01.829Z,1.80
2023-04-02T18:25:43.473Z,1.80
2023-04-02T18:28:47.369Z,1.80
2023-04-02T18:31:46.503Z,1.80
2023-04-02T18:34:22.536Z,1.80
2023-04-02T18:37:04.269Z,1.80
2023-04-02T18:39:46.111Z,1.70
2023-04-02T18:42:24.758Z,1.50
2023-04-02T18:45:15.735Z,1.60
2023-04-02T18:48:04.604Z,1.50
2023-04-02T18:50:34.722Z,1.60
2023-04-02T18:53:24.499Z,1.40
2023-04-02T18:56:07.352Z,1.30
2023-04-02T18:58:57.040Z,1.30
2023-04-02T19:01:39.566Z,1.30
2023-04-02T19:04:09.699Z,1.20
2023-04-02T19:06:44.999Z,1.30
2023-04-02T19:09:15.193Z,1.10
2023-04-02T19:11:42.090Z,1.40
2023-04-02T19:14:13.295Z,1.20
2023-04-02T19:16:59.055Z,1.10
2023-04-02T19:19:32.204Z,1.10
2023-04-02T19:22:01.800Z,1.00
2023-04-02T19:24:46.428Z,1.00
2023-04-02T19:27:32.507Z,0.90
2023-04-02T19:30:17.851Z,0.90
2023-04-02T19:32:56.064Z,0.90
2023-04-02T19:35:33.648Z,0.80
2023-04-02T19:38:37.620Z,0.80
2023-04-02T19:41:17.226Z,1.00
2023-04-02T19:43:44.092Z,0.80
2023-04-02T19:46:11.022Z,0.70
2023-04-02T19:48:47.161Z,0.70
2023-04-02T19:51:13.870Z,0.60
2023-04-02T19:53:41.072Z,0.60
2023-04-02T19:56:07.927Z,0.50
2023-04-02T19:58:36.184Z,0.60
2023-04-02T20:01:03.600Z,0.50
2023-04-02T20:03:31.377Z,0.40
2023-04-02T20:05:59.640Z,0.40
2023-04-02T20:08:27.091Z,0.50
2023-04-02T20:10:53.920Z,0.40
2023-04-02T20:13:20.646Z,0.40
2023-04-02T20:15:47.395Z,0.50
2023-04-02T20:18:14.147Z,0.50
2023-04-02T20:20:41.054Z,0.50
2023-04-02T20:23:07.836Z,0.40
2023-04-02T20:25:34.591Z,0.30
2023-04-02T20:28:03.709Z,0.40
2023-04-02T20:30:32.395Z,0.30
2023-04-02T20:32:59.838Z,0.30
2023-04-02T20:35:27.317Z,0.40
2023-04-02T20:37:54.079Z,0.40
2023-04-02T20:40:20.994Z,0.10
2023-04-02T20:42:47.721Z,0.30
2023-04-02T20:45:14.536Z,0.40
2023-04-02T20:47:41.426Z,0.20
2023-04-02T20:50:08.730Z,0.10
2023-04-02T20:52:35.728Z,0.10
2023-04-02T20:55:03.578Z,0.10
2023-04-02T20:57:30.852Z,0.10
2023-04-02T20:59:58.911Z,0.30
2023-04-02T21:02:25.853Z,0.20
2023-04-02T21:04:52.773Z,0.30
2023-04-02T21:07:19.678Z,0.30
2023-04-02T21:09:46.592Z,0.20
2023-04-02T21:12:13.330Z,0.00
2023-04-02T21:14:40.282Z,0.10
2023-04-02T21:17:07.788Z,0.00
2023-04-02T21:19:34.882Z,0.00
2023-04-02T21:22:01.603Z,0.00
2023-04-02T21:24:28.371Z,0.00
2023-04-02T21:26:55.402Z,0.20
2023-04-02T21:29:22.275Z,0.00
2023-04-02T21:31:50.078Z,0.00
2023-04-02T21:34:17.443Z,0.00
2023-04-02T21:36:46.918Z,0.00
2023-04-02T21:39:17.719Z,0.00
2023-04-02T21:41:46.611Z,0.00
2023-04-02T21:44:14.406Z,0.00
2023-04-02T21:46:44.429Z,0.10
2023-04-02T21:49:12.204Z,0.00
2023-04-02T21:51:39.763Z,0.00
2023-04-02T21:54:07.736Z,-0.10
2023-04-02T21:56:38.611Z,0.00
2023-04-02T21:59:07.050Z,-0.10
2023-04-02T22:01:37.028Z,0.00
2023-04-02T22:04:05.222Z,0.00
2023-04-02T22:06:33.160Z,0.00
2023-04-02T22:09:02.878Z,0.00
2023-04-02T22:11:35.765Z,-0.10
2023-04-02T22:14:03.606Z,0.00
2023-04-02T22:16:31.130Z,0.00
2023-04-02T22:19:02.323Z,0.00
2023-04-02T22:21:31.123Z,-0.30
2023-04-02T22:24:02.263Z,-0.10
2023-04-02T22:26:30.478Z,-0.10
2023-04-02T22:28:57.463Z,-0.10
2023-04-02T22:31:25.893Z,-0.20
2023-04-02T22:33:53.146Z,0.00
2023-04-02T22:36:20.929Z,-0.20
2023-04-02T22:38:48.170Z,-0.10
2023-04-02T22:41:17.808Z,0.00
2023-04-02T22:43:45.942Z,-0.20
2023-04-02T22:46:14.864Z,0.00
2023-04-02T22:48:42.280Z,-0.20
2023-04-02T22:51:11.469Z,-0.10
2023-04-02T22:53:38.855Z,0.00
2023-04-02T22:56:09.532Z,0.00
2023-04-02T22:58:37.376Z,-0.20
2023-04-02T23:01:11.925Z,-0.20
2023-04-02T23:03:38.979Z,-0.20
2023-04-02T23:06:08.014Z,0.00
2023-04-02T23:08:36.321Z,-0.20
2023-04-02T23:11:04.173Z,-0.40
2023-04-02T23:13:31.508Z,-0.30
2023-04-02T23:15:58.248Z,-0.40
2023-04-02T23:18:25.101Z,-0.30
2023-04-02T23:20:51.957Z,-0.30
2023-04-02T23:23:18.785Z,-0.40
2023-04-02T23:25:45.657Z,-0.40
2023-04-02T23:28:14.005Z,-0.30
2023-04-02T23:30:44.339Z,-0.40
2023-04-02T23:33:11.285Z,-0.40
2023-04-02T23:35:38.142Z,-0.40
2023-04-02T23:38:05.051Z,-0.50
2023-04-02T23:40:31.867Z,-0.30
2023-04-02T23:42:58.663Z,-0.50
2023-04-02T23:45:25.679Z,-0.50
2023-04-02T23:47:52.673Z,-0.40
2023-04-02T23:50:19.506Z,-0.50
2023-04-02T23:52:47.243Z,-0.60
2023-04-02T23:55:14.249Z,-0.40
2023-04-02T23:57:41.204Z,-0.40
